LEVC/VLC METAR and TAF weather

Enter ICAO airport designator
Station Type Date Time Source
LEVC METAR 2023/01/30 12:00 UTC NOAA

LEVC 301200Z 12004KT 060V190 CAVOK 11/02 Q1029 NOSIG


Station Type Date Time Source
LEVC Decoded METAR 2023/01/30 12:00 UTC NOAA

Valencia / Aeropuerto, Spain (LEVC) 39-30N 000-28W 62M
Jan 30, 2023 - 07:00 AM EST / 2023.01.30 1200 UTC
Wind: from the ESE (120 degrees) at 5 MPH (4 KT) (direction variable):0
Visibility: greater than 7 mile(s):0
Temperature: 51 F (11 C)
Dew Point: 35 F (2 C)
Relative Humidity: 53%
Pressure (altimeter): 30.39 in. Hg (1029 hPa)
ob: LEVC 301200Z 12004KT 060V190 CAVOK 11/02 Q1029 NOSIG
cycle: 12

Station Type Date Time Source
LEVC TAF 2023/01/30 12:27 UTC NOAA

TAF LEVC 301100Z 3012/3112 VRB04KT 9999 FEW050 TX15/3012Z TN01/3106Z
TEMPO 3015/3020 14008KT

Example: see airport list